Time,TemperatureF,DewpointF,PressureIn,WindDirection,WindDirectionDegrees,WindSpeedMPH,WindSpeedGustMPH,Humidity,HourlyPrecipIn,Conditions,Clouds,dailyrainin,SoftwareType,DateUTC
2013-07-02 00:01:00,71.1,51.6,30.16,North,0,0.0,0.0,50,0.00,,,0.00,WUHU216HW,2013-07-02 06:01:00,
2013-07-02 00:06:00,71.1,52.0,30.16,North,0,0.0,0.0,51,0.00,,,0.00,WUHU216HW,2013-07-02 06:06:00,
2013-07-02 00:11:00,71.1,51.6,30.16,North,0,0.0,0.0,50,0.00,,,0.00,WUHU216HW,2013-07-02 06:11:00,
2013-07-02 00:16:00,70.9,51.8,30.16,North,0,0.0,0.0,51,0.00,,,0.00,WUHU216HW,2013-07-02 06:16:00,
2013-07-02 00:21:00,70.7,51.8,30.16,North,0,0.0,0.0,51,0.00,,,0.00,WUHU216HW,2013-07-02 06:21:00,
2013-07-02 00:26:00,70.4,51.4,30.17,North,0,0.0,0.0,51,0.00,,,0.00,WUHU216HW,2013-07-02 06:26:00,
2013-07-02 00:31:00,69.8,51.0,30.17,North,0,0.0,0.0,51,0.00,,,0.00,WUHU216HW,2013-07-02 06:31:00,
2013-07-02 00:36:00,69.5,50.6,30.17,North,0,0.0,0.0,51,0.00,,,0.00,WUHU216HW,2013-07-02 06:36:00,
2013-07-02 00:41:00,69.1,50.8,30.17,North,0,0.0,0.0,52,0.00,,,0.00,WUHU216HW,2013-07-02 06:41:00,
2013-07-02 00:46:00,68.9,50.6,30.17,North,0,0.0,0.0,52,0.00,,,0.00,WUHU216HW,2013-07-02 06:46:00,
2013-07-02 00:51:00,68.8,51.0,30.17,North,0,0.0,0.0,53,0.00,,,0.00,WUHU216HW,2013-07-02 06:51:00,
2013-07-02 00:56:00,68.8,51.0,30.17,North,0,0.0,0.0,53,0.00,,,0.00,WUHU216HW,2013-07-02 06:56:00,
2013-07-02 01:01:00,68.8,51.4,30.17,North,0,0.0,0.0,54,0.00,,,0.00,WUHU216HW,2013-07-02 07:01:00,
2013-07-02 01:06:00,68.6,51.2,30.17,North,0,0.0,0.0,54,0.00,,,0.00,WUHU216HW,2013-07-02 07:06:00,
2013-07-02 01:11:00,68.4,51.0,30.17,North,0,0.0,0.0,54,0.00,,,0.00,WUHU216HW,2013-07-02 07:11:00,
2013-07-02 01:16:00,68.0,50.8,30.17,North,0,0.0,0.0,54,0.00,,,0.00,WUHU216HW,2013-07-02 07:16:00,
2013-07-02 01:21:00,67.7,50.4,30.17,North,0,0.0,0.0,54,0.00,,,0.00,WUHU216HW,2013-07-02 07:21:00,
2013-07-02 01:26:00,67.5,50.8,30.17,North,0,0.0,0.0,55,0.00,,,0.00,WUHU216HW,2013-07-02 07:26:00,
2013-07-02 01:31:00,67.3,50.6,30.18,North,0,0.0,0.0,55,0.00,,,0.00,WUHU216HW,2013-07-02 07:31:00,
2013-07-02 01:36:00,67.0,50.8,30.18,North,0,0.0,0.0,56,0.00,,,0.00,WUHU216HW,2013-07-02 07:36:00,
2013-07-02 01:41:00,66.6,50.0,30.18,North,0,0.0,0.0,55,0.00,,,0.00,WUHU216HW,2013-07-02 07:41:00,
2013-07-02 01:46:00,66.4,50.2,30.18,North,0,0.0,0.0,56,0.00,,,0.00,WUHU216HW,2013-07-02 07:46:00,
2013-07-02 01:51:00,66.1,49.9,30.18,North,0,0.0,0.0,56,0.00,,,0.00,WUHU216HW,2013-07-02 07:51:00,
2013-07-02 01:56:00,65.7,49.5,30.18,North,0,0.0,0.0,56,0.00,,,0.00,WUHU216HW,2013-07-02 07:56:00,
2013-07-02 02:01:00,65.5,49.9,30.18,North,0,0.0,0.0,57,0.00,,,0.00,WUHU216HW,2013-07-02 08:01:00,
2013-07-02 02:06:00,65.2,50.0,30.18,North,0,0.0,0.0,58,0.00,,,0.00,WUHU216HW,2013-07-02 08:06:00,
2013-07-02 02:11:00,65.2,50.9,30.18,North,0,0.0,0.0,60,0.00,,,0.00,WUHU216HW,2013-07-02 08:11:00,
2013-07-02 02:16:00,65.2,50.9,30.18,North,0,0.0,0.0,60,0.00,,,0.00,WUHU216HW,2013-07-02 08:16:00,
2013-07-02 02:21:00,65.3,50.7,30.18,North,0,0.0,0.0,59,0.00,,,0.00,WUHU216HW,2013-07-02 08:21:00,
2013-07-02 02:26:00,65.2,50.5,30.18,North,0,0.0,0.0,59,0.00,,,0.00,WUHU216HW,2013-07-02 08:26:00,
2013-07-02 02:31:00,65.0,50.8,30.18,North,0,0.0,0.0,60,0.00,,,0.00,WUHU216HW,2013-07-02 08:31:00,
2013-07-02 02:36:00,64.8,50.6,30.18,North,0,0.0,0.0,60,0.00,,,0.00,WUHU216HW,2013-07-02 08:36:00,
2013-07-02 02:41:00,64.6,50.4,30.18,North,0,0.0,0.0,60,0.00,,,0.00,WUHU216HW,2013-07-02 08:41:00,
2013-07-02 02:46:00,64.4,50.2,30.18,North,0,0.0,0.0,60,0.00,,,0.00,WUHU216HW,2013-07-02 08:46:00,
2013-07-02 02:51:00,64.3,50.5,30.18,North,0,0.0,0.0,61,0.00,,,0.00,WUHU216HW,2013-07-02 08:51:00,
2013-07-02 02:56:00,64.1,50.3,30.17,North,0,0.0,0.0,61,0.00,,,0.00,WUHU216HW,2013-07-02 08:56:00,
2013-07-02 03:01:00,63.9,50.1,30.18,North,0,0.0,0.0,61,0.00,,,0.00,WUHU216HW,2013-07-02 09:01:00,
2013-07-02 03:06:00,63.7,50.4,30.18,North,0,0.0,0.0,62,0.00,,,0.00,WUHU216HW,2013-07-02 09:06:00,
2013-07-02 03:11:00,63.2,49.5,30.18,North,0,0.0,0.0,61,0.00,,,0.00,WUHU216HW,2013-07-02 09:11:00,
2013-07-02 03:16:00,62.6,49.1,30.18,North,0,0.0,0.0,61,0.00,,,0.00,WUHU216HW,2013-07-02 09:16:00,
2013-07-02 03:21:00,62.3,49.5,30.18,North,0,0.0,0.0,63,0.00,,,0.00,WUHU216HW,2013-07-02 09:21:00,
2013-07-02 03:26:00,62.3,50.0,30.17,North,0,0.0,0.0,64,0.00,,,0.00,WUHU216HW,2013-07-02 09:26:00,
2013-07-02 03:31:00,62.3,50.3,30.17,North,0,0.0,0.0,65,0.00,,,0.00,WUHU216HW,2013-07-02 09:31:00,
2013-07-02 03:36:00,62.5,50.5,30.17,North,0,0.0,0.0,65,0.00,,,0.00,WUHU216HW,2013-07-02 09:36:00,
2013-07-02 03:41:00,62.3,50.0,30.17,North,0,0.0,0.0,64,0.00,,,0.00,WUHU216HW,2013-07-02 09:41:00,
2013-07-02 03:46:00,62.3,50.0,30.17,North,0,0.0,0.0,64,0.00,,,0.00,WUHU216HW,2013-07-02 09:46:00,
2013-07-02 03:51:00,61.6,49.7,30.18,North,0,0.0,0.0,65,0.00,,,0.00,WUHU216HW,2013-07-02 09:51:00,
2013-07-02 03:56:00,61.2,49.4,30.18,North,0,0.0,0.0,65,0.00,,,0.00,WUHU216HW,2013-07-02 09:56:00,
2013-07-02 04:01:00,60.8,49.1,30.18,North,0,0.0,0.0,65,0.00,,,0.00,WUHU216HW,2013-07-02 10:01:00,
2013-07-02 04:06:00,60.5,48.7,30.18,North,0,0.0,0.0,65,0.00,,,0.00,WUHU216HW,2013-07-02 10:06:00,
2013-07-02 04:11:00,60.1,48.3,30.18,North,0,0.0,0.0,65,0.00,,,0.00,WUHU216HW,2013-07-02 10:11:00,
2013-07-02 04:16:00,59.9,49.0,30.18,North,0,0.0,0.0,67,0.00,,,0.00,WUHU216HW,2013-07-02 10:16:00,
2013-07-02 04:21:00,59.9,49.0,30.18,North,0,0.0,0.0,67,0.00,,,0.00,WUHU216HW,2013-07-02 10:21:00,
2013-07-02 04:26:00,59.9,49.0,30.18,North,0,0.0,0.0,67,0.00,,,0.00,WUHU216HW,2013-07-02 10:26:00,
2013-07-02 04:31:00,59.9,49.0,30.18,North,0,0.0,0.0,67,0.00,,,0.00,WUHU216HW,2013-07-02 10:31:00,
2013-07-02 04:36:00,59.9,49.4,30.19,North,0,0.0,0.0,68,0.00,,,0.00,WUHU216HW,2013-07-02 10:36:00,
2013-07-02 04:41:00,59.9,49.8,30.19,North,0,0.0,0.0,69,0.00,,,0.00,WUHU216HW,2013-07-02 10:41:00,
2013-07-02 04:46:00,60.1,49.6,30.19,North,0,0.0,0.0,68,0.00,,,0.00,WUHU216HW,2013-07-02 10:46:00,
2013-07-02 04:51:00,60.1,49.6,30.19,North,0,0.0,0.0,68,0.00,,,0.00,WUHU216HW,2013-07-02 10:51:00,
2013-07-02 04:56:00,60.1,49.6,30.19,North,0,0.0,0.0,68,0.00,,,0.00,WUHU216HW,2013-07-02 10:56:00,
2013-07-02 05:01:00,59.9,49.4,30.19,North,0,0.0,0.0,68,0.00,,,0.00,WUHU216HW,2013-07-02 11:01:00,
2013-07-02 05:06:00,59.6,49.1,30.19,North,0,0.0,0.0,68,0.00,,,0.00,WUHU216HW,2013-07-02 11:06:00,
2013-07-02 05:11:00,59.2,48.7,30.19,North,0,0.0,0.0,68,0.00,,,0.00,WUHU216HW,2013-07-02 11:11:00,
2013-07-02 05:16:00,58.7,48.2,30.19,North,0,0.0,0.0,68,0.00,,,0.00,WUHU216HW,2013-07-02 11:16:00,
2013-07-02 05:21:00,58.3,48.2,30.19,North,0,0.0,0.0,69,0.00,,,0.00,WUHU216HW,2013-07-02 11:21:00,
2013-07-02 05:26:00,58.1,48.0,30.19,North,0,0.0,0.0,69,0.00,,,0.00,WUHU216HW,2013-07-02 11:26:00,
2013-07-02 05:31:00,58.0,48.2,30.19,North,0,0.0,0.0,70,0.00,,,0.00,WUHU216HW,2013-07-02 11:31:00,
2013-07-02 05:36:00,57.8,48.4,30.19,North,0,0.0,0.0,71,0.00,,,0.00,WUHU216HW,2013-07-02 11:36:00,
2013-07-02 05:41:00,57.8,48.4,30.19,North,0,0.0,0.0,71,0.00,,,0.00,WUHU216HW,2013-07-02 11:41:00,
2013-07-02 05:46:00,57.8,48.4,30.19,North,0,0.0,0.0,71,0.00,,,0.00,WUHU216HW,2013-07-02 11:46:00,
2013-07-02 05:51:00,57.8,48.8,30.19,North,0,0.0,0.0,72,0.00,,,0.00,WUHU216HW,2013-07-02 11:51:00,
2013-07-02 05:56:00,58.0,49.0,30.19,North,0,0.0,0.0,72,0.00,,,0.00,WUHU216HW,2013-07-02 11:56:00,
2013-07-02 06:01:00,58.0,49.0,30.19,North,0,0.0,0.0,72,0.00,,,0.00,WUHU216HW,2013-07-02 12:01:00,
2013-07-02 06:06:00,58.1,49.1,30.19,North,0,0.0,0.0,72,0.00,,,0.00,WUHU216HW,2013-07-02 12:06:00,
2013-07-02 06:11:00,58.3,49.3,30.19,North,0,0.0,0.0,72,0.00,,,0.00,WUHU216HW,2013-07-02 12:11:00,
2013-07-02 06:16:00,58.1,49.1,30.19,North,0,0.0,0.0,72,0.00,,,0.00,WUHU216HW,2013-07-02 12:16:00,
2013-07-02 06:21:00,58.3,49.7,30.19,North,0,0.0,0.0,73,0.00,,,0.00,WUHU216HW,2013-07-02 12:21:00,
2013-07-02 06:26:00,58.7,50.0,30.20,North,0,0.0,0.0,73,0.00,,,0.00,WUHU216HW,2013-07-02 12:26:00,
2013-07-02 06:31:00,59.8,51.1,30.20,North,0,0.0,0.0,73,0.00,,,0.00,WUHU216HW,2013-07-02 12:31:00,
2013-07-02 06:36:00,60.8,51.8,30.20,North,0,0.0,0.0,72,0.00,,,0.00,WUHU216HW,2013-07-02 12:36:00,
2013-07-02 06:41:00,61.6,51.8,30.20,North,0,0.0,0.0,70,0.00,,,0.00,WUHU216HW,2013-07-02 12:41:00,
2013-07-02 06:46:00,61.6,51.4,30.20,North,0,0.0,0.0,69,0.00,,,0.00,WUHU216HW,2013-07-02 12:46:00,
2013-07-02 06:51:00,61.7,51.5,30.20,North,0,0.0,0.0,69,0.00,,,0.00,WUHU216HW,2013-07-02 12:51:00,
2013-07-02 06:56:00,61.9,52.1,30.20,North,0,0.0,0.0,70,0.00,,,0.00,WUHU216HW,2013-07-02 12:56:00,
2013-07-02 07:01:00,62.3,52.4,30.20,North,0,0.0,0.0,70,0.00,,,0.00,WUHU216HW,2013-07-02 13:01:00,
2013-07-02 07:06:00,62.5,52.6,30.20,North,0,0.0,0.0,70,0.00,,,0.00,WUHU216HW,2013-07-02 13:06:00,
2013-07-02 07:11:00,62.6,52.3,30.20,North,0,0.0,0.0,69,0.00,,,0.00,WUHU216HW,2013-07-02 13:11:00,
2013-07-02 07:16:00,63.0,52.3,30.19,North,0,0.0,0.0,68,0.00,,,0.00,WUHU216HW,2013-07-02 13:16:00,
2013-07-02 07:21:00,63.2,52.0,30.19,North,0,0.0,0.0,67,0.00,,,0.00,WUHU216HW,2013-07-02 13:21:00,
2013-07-02 07:26:00,63.5,51.9,30.19,North,0,0.0,0.0,66,0.00,,,0.00,WUHU216HW,2013-07-02 13:26:00,
2013-07-02 07:31:00,63.7,52.1,30.19,North,0,0.0,0.0,66,0.00,,,0.00,WUHU216HW,2013-07-02 13:31:00,
2013-07-02 07:36:00,63.9,52.3,30.19,North,0,0.0,0.0,66,0.00,,,0.00,WUHU216HW,2013-07-02 13:36:00,
2013-07-02 07:41:00,64.3,52.7,30.19,North,0,0.0,0.0,66,0.00,,,0.00,WUHU216HW,2013-07-02 13:41:00,
2013-07-02 07:46:00,64.6,53.0,30.19,North,0,0.0,0.0,66,0.00,,,0.00,WUHU216HW,2013-07-02 13:46:00,
2013-07-02 07:51:00,65.2,53.5,30.19,North,0,0.0,0.0,66,0.00,,,0.00,WUHU216HW,2013-07-02 13:51:00,
2013-07-02 07:56:00,65.7,53.6,30.19,North,0,0.0,0.0,65,0.00,,,0.00,WUHU216HW,2013-07-02 13:56:00,
2013-07-02 08:01:00,66.2,54.1,30.19,North,0,0.0,0.0,65,0.00,,,0.00,WUHU216HW,2013-07-02 14:01:00,
2013-07-02 08:06:00,67.0,54.4,30.18,North,0,0.0,0.0,64,0.00,,,0.00,WUHU216HW,2013-07-02 14:06:00,
2013-07-02 08:11:00,67.7,54.6,30.18,North,0,0.0,0.0,63,0.00,,,0.00,WUHU216HW,2013-07-02 14:11:00,
2013-07-02 08:16:00,68.2,54.7,30.18,North,0,0.0,0.0,62,0.00,,,0.00,WUHU216HW,2013-07-02 14:16:00,
2013-07-02 08:21:00,68.8,54.8,30.18,North,0,0.0,0.0,61,0.00,,,0.00,WUHU216HW,2013-07-02 14:21:00,
2013-07-02 08:26:00,69.5,55.1,30.18,North,0,0.0,0.0,60,0.00,,,0.00,WUHU216HW,2013-07-02 14:26:00,
2013-07-02 08:31:00,70.2,54.7,30.19,North,0,0.0,0.0,58,0.00,,,0.00,WUHU216HW,2013-07-02 14:31:00,
2013-07-02 08:36:00,70.6,55.1,30.18,North,0,0.0,0.0,58,0.00,,,0.00,WUHU216HW,2013-07-02 14:36:00,
2013-07-02 08:41:00,71.3,55.7,30.18,North,0,0.0,0.0,58,0.00,,,0.00,WUHU216HW,2013-07-02 14:41:00,
2013-07-02 08:46:00,72.0,56.3,30.18,North,0,0.0,0.0,58,0.00,,,0.00,WUHU216HW,2013-07-02 14:46:00,
2013-07-02 08:51:00,72.7,56.5,30.18,North,0,0.0,0.0,57,0.00,,,0.00,WUHU216HW,2013-07-02 14:51:00,
2013-07-02 08:56:00,73.3,56.0,30.18,North,0,0.0,0.0,55,0.00,,,0.00,WUHU216HW,2013-07-02 14:56:00,
2013-07-02 09:01:00,73.4,56.2,30.18,North,0,0.0,0.0,55,0.00,,,0.00,WUHU216HW,2013-07-02 15:01:00,
2013-07-02 09:06:00,74.0,56.2,30.18,North,0,0.0,0.0,54,0.00,,,0.00,WUHU216HW,2013-07-02 15:06:00,
2013-07-02 09:11:00,74.3,56.1,30.18,North,0,0.0,0.0,53,0.00,,,0.00,WUHU216HW,2013-07-02 15:11:00,
2013-07-02 09:16:00,74.5,55.7,30.18,North,0,0.0,0.0,52,0.00,,,0.00,WUHU216HW,2013-07-02 15:16:00,
2013-07-02 09:21:00,74.9,56.1,30.18,North,0,0.0,0.0,52,0.00,,,0.00,WUHU216HW,2013-07-02 15:21:00,
2013-07-02 09:26:00,75.2,56.4,30.18,North,0,0.0,0.0,52,0.00,,,0.00,WUHU216HW,2013-07-02 15:26:00,
2013-07-02 09:31:00,75.8,57.0,30.18,North,0,0.0,0.0,52,0.00,,,0.00,WUHU216HW,2013-07-02 15:31:00,
2013-07-02 09:36:00,76.3,56.9,30.18,North,0,0.0,0.0,51,0.00,,,0.00,WUHU216HW,2013-07-02 15:36:00,
2013-07-02 09:41:00,76.7,56.7,30.18,North,0,0.0,0.0,50,0.00,,,0.00,WUHU216HW,2013-07-02 15:41:00,
2013-07-02 09:46:00,76.9,56.9,30.18,North,0,0.0,0.0,50,0.00,,,0.00,WUHU216HW,2013-07-02 15:46:00,
2013-07-02 09:51:00,77.4,57.4,30.17,North,0,0.0,0.0,50,0.00,,,0.00,WUHU216HW,2013-07-02 15:51:00,
2013-07-02 09:56:00,77.8,57.1,30.17,North,0,0.0,0.0,49,0.00,,,0.00,WUHU216HW,2013-07-02 15:56:00,
2013-07-02 10:01:00,78.5,57.2,30.17,North,0,0.0,0.0,48,0.00,,,0.00,WUHU216HW,2013-07-02 16:01:00,
2013-07-02 10:06:00,79.0,57.0,30.17,North,0,0.0,0.0,47,0.00,,,0.00,WUHU216HW,2013-07-02 16:06:00,
2013-07-02 10:11:00,79.2,57.2,30.17,North,0,0.0,0.0,47,0.00,,,0.00,WUHU216HW,2013-07-02 16:11:00,
2013-07-02 10:16:00,79.4,56.7,30.16,North,0,0.0,0.0,46,0.00,,,0.00,WUHU216HW,2013-07-02 16:16:00,
2013-07-02 10:21:00,79.9,56.6,30.16,North,0,0.0,0.0,45,0.00,,,0.00,WUHU216HW,2013-07-02 16:21:00,
2013-07-02 10:26:00,80.3,56.4,30.16,North,0,0.0,0.0,44,0.00,,,0.00,WUHU216HW,2013-07-02 16:26:00,
2013-07-02 10:31:00,80.3,56.4,30.16,North,0,0.0,0.0,44,0.00,,,0.00,WUHU216HW,2013-07-02 16:31:00,
2013-07-02 10:36:00,81.0,55.7,30.16,North,0,0.0,0.0,42,0.00,,,0.00,WUHU216HW,2013-07-02 16:36:00,
2013-07-02 10:41:00,81.4,56.1,30.16,North,0,0.0,0.0,42,0.00,,,0.00,WUHU216HW,2013-07-02 16:41:00,
2013-07-02 10:46:00,81.7,55.8,30.16,North,0,0.0,0.0,41,0.00,,,0.00,WUHU216HW,2013-07-02 16:46:00,
2013-07-02 10:51:00,82.3,56.3,30.15,North,0,0.0,0.0,41,0.00,,,0.00,WUHU216HW,2013-07-02 16:51:00,
2013-07-02 10:56:00,82.6,56.6,30.15,North,0,0.0,0.0,41,0.00,,,0.00,WUHU216HW,2013-07-02 16:56:00,
2013-07-02 11:01:00,83.0,56.9,30.15,North,0,0.0,0.0,41,0.00,,,0.00,WUHU216HW,2013-07-02 17:01:00,
2013-07-02 11:06:00,83.3,56.6,30.15,North,0,0.0,0.0,40,0.00,,,0.00,WUHU216HW,2013-07-02 17:06:00,
2013-07-02 11:11:00,83.9,57.1,30.14,North,0,0.0,0.0,40,0.00,,,0.00,WUHU216HW,2013-07-02 17:11:00,
2013-07-02 11:16:00,84.2,56.6,30.14,North,0,0.0,0.0,39,0.00,,,0.00,WUHU216HW,2013-07-02 17:16:00,
2013-07-02 11:21:00,84.2,55.8,30.14,North,0,0.0,0.0,38,0.00,,,0.00,WUHU216HW,2013-07-02 17:21:00,
2013-07-02 11:26:00,85.0,57.2,30.14,North,0,0.0,0.0,39,0.00,,,0.00,WUHU216HW,2013-07-02 17:26:00,
2013-07-02 11:31:00,85.9,56.5,30.14,North,0,0.0,0.0,37,0.00,,,0.00,WUHU216HW,2013-07-02 17:31:00,
2013-07-02 11:36:00,86.0,56.7,30.14,North,0,0.0,0.0,37,0.00,,,0.00,WUHU216HW,2013-07-02 17:36:00,
2013-07-02 11:41:00,86.4,55.4,30.14,North,0,0.0,0.0,35,0.00,,,0.00,WUHU216HW,2013-07-02 17:41:00,
2013-07-02 11:46:00,86.8,55.7,30.14,North,0,0.0,0.0,35,0.00,,,0.00,WUHU216HW,2013-07-02 17:46:00,
2013-07-02 11:51:00,87.3,55.4,30.14,North,0,0.0,0.0,34,0.00,,,0.00,WUHU216HW,2013-07-02 17:51:00,
2013-07-02 11:56:00,87.8,55.8,30.13,North,0,0.0,0.0,34,0.00,,,0.00,WUHU216HW,2013-07-02 17:56:00,
2013-07-02 12:01:00,87.8,55.8,30.13,North,0,0.0,0.0,34,0.00,,,0.00,WUHU216HW,2013-07-02 18:01:00,
2013-07-02 12:06:00,88.6,57.3,30.13,North,0,0.0,0.0,35,0.00,,,0.00,WUHU216HW,2013-07-02 18:06:00,
2013-07-02 12:11:00,88.7,56.6,30.13,North,0,0.0,0.0,34,0.00,,,0.00,WUHU216HW,2013-07-02 18:11:00,
2013-07-02 12:16:00,89.1,56.9,30.13,North,0,0.0,0.0,34,0.00,,,0.00,WUHU216HW,2013-07-02 18:16:00,
2013-07-02 12:21:00,89.1,56.1,30.12,North,0,0.0,0.0,33,0.00,,,0.00,WUHU216HW,2013-07-02 18:21:00,
2013-07-02 12:26:00,90.0,55.3,30.12,North,0,0.0,0.0,31,0.00,,,0.00,WUHU216HW,2013-07-02 18:26:00,
2013-07-02 12:31:00,90.4,54.8,30.12,North,0,0.0,0.0,30,0.00,,,0.00,WUHU216HW,2013-07-02 18:31:00,
2013-07-02 12:36:00,90.4,55.6,30.12,North,0,0.0,0.0,31,0.00,,,0.00,WUHU216HW,2013-07-02 18:36:00,
2013-07-02 12:41:00,90.9,54.2,30.12,North,0,0.0,0.0,29,0.00,,,0.00,WUHU216HW,2013-07-02 18:41:00,
2013-07-02 12:46:00,91.1,55.4,30.12,North,0,0.0,0.0,30,0.00,,,0.00,WUHU216HW,2013-07-02 18:46:00,
2013-07-02 12:51:00,91.6,56.0,30.12,North,0,0.0,0.0,30,0.00,,,0.00,WUHU216HW,2013-07-02 18:51:00,
2013-07-02 12:57:00,92.0,52.9,30.12,North,0,0.0,0.0,27,0.00,,,0.00,WUHU216HW,2013-07-02 18:57:00,
2013-07-02 13:01:00,92.2,53.1,30.12,North,0,0.0,0.0,27,0.00,,,0.00,WUHU216HW,2013-07-02 19:01:00,
2013-07-02 13:07:00,92.5,53.4,30.11,North,0,0.0,0.0,27,0.00,,,0.00,WUHU216HW,2013-07-02 19:07:00,
2013-07-02 13:11:00,92.9,52.6,30.11,North,0,0.0,0.0,26,0.00,,,0.00,WUHU216HW,2013-07-02 19:11:00,
2013-07-02 13:16:00,92.7,52.4,30.11,North,0,0.0,0.0,26,0.00,,,0.00,WUHU216HW,2013-07-02 19:16:00,
2013-07-02 13:21:00,92.3,52.1,30.11,North,0,0.0,0.0,26,0.00,,,0.00,WUHU216HW,2013-07-02 19:21:00,
2013-07-02 13:26:00,93.1,52.8,30.11,North,0,0.0,0.0,26,0.00,,,0.00,WUHU216HW,2013-07-02 19:26:00,
2013-07-02 13:31:00,93.8,51.1,30.11,North,0,0.0,0.0,24,0.00,,,0.00,WUHU216HW,2013-07-02 19:31:00,
2013-07-02 13:36:00,94.5,52.8,30.11,North,0,0.0,0.0,25,0.00,,,0.00,WUHU216HW,2013-07-02 19:36:00,
2013-07-02 13:41:00,94.1,51.4,30.10,North,0,0.0,0.0,24,0.00,,,0.00,WUHU216HW,2013-07-02 19:41:00,
2013-07-02 13:46:00,93.6,50.9,30.11,North,0,0.0,0.0,24,0.00,,,0.00,WUHU216HW,2013-07-02 19:46:00,
2013-07-02 13:51:00,93.6,52.0,30.11,North,0,0.0,0.0,25,0.00,,,0.00,WUHU216HW,2013-07-02 19:51:00,
2013-07-02 13:56:00,94.0,52.4,30.11,North,0,0.0,0.0,25,0.00,,,0.00,WUHU216HW,2013-07-02 19:56:00,
2013-07-02 14:01:00,94.3,52.7,30.10,North,0,0.0,0.0,25,0.00,,,0.00,WUHU216HW,2013-07-02 20:01:00,
2013-07-02 14:06:00,95.2,52.3,30.10,North,0,0.0,0.0,24,0.00,,,0.00,WUHU216HW,2013-07-02 20:06:00,
2013-07-02 14:11:00,96.1,53.1,30.10,North,0,0.0,0.0,24,0.00,,,0.00,WUHU216HW,2013-07-02 20:11:00,
2013-07-02 14:16:00,96.5,52.3,30.10,North,0,0.0,0.0,23,0.00,,,0.00,WUHU216HW,2013-07-02 20:16:00,
2013-07-02 14:21:00,96.5,52.3,30.09,North,0,0.0,0.0,23,0.00,,,0.00,WUHU216HW,2013-07-02 20:21:00,
2013-07-02 14:26:00,96.3,53.3,30.09,North,0,0.0,0.0,24,0.00,,,0.00,WUHU216HW,2013-07-02 20:26:00,
2013-07-02 14:31:00,96.5,52.3,30.09,North,0,0.0,0.0,23,0.00,,,0.00,WUHU216HW,2013-07-02 20:31:00,
2013-07-02 14:36:00,96.7,52.5,30.09,North,0,0.0,0.0,23,0.00,,,0.00,WUHU216HW,2013-07-02 20:36:00,
2013-07-02 14:41:00,96.1,52.0,30.09,North,0,0.0,0.0,23,0.00,,,0.00,WUHU216HW,2013-07-02 20:41:00,
2013-07-02 14:46:00,96.3,52.1,30.09,North,0,0.0,0.0,23,0.00,,,0.00,WUHU216HW,2013-07-02 20:46:00,
2013-07-02 14:51:00,96.3,52.1,30.08,North,0,0.0,0.0,23,0.00,,,0.00,WUHU216HW,2013-07-02 20:51:00,
2013-07-02 14:56:00,96.8,51.5,30.09,North,0,0.0,0.0,22,0.00,,,0.00,WUHU216HW,2013-07-02 20:56:00,
2013-07-02 15:02:00,96.8,51.5,30.08,North,0,0.0,0.0,22,0.00,,,0.00,WUHU216HW,2013-07-02 21:02:00,
2013-07-02 15:07:00,96.3,51.0,30.08,North,0,0.0,0.0,22,0.00,,,0.00,WUHU216HW,2013-07-02 21:07:00,
2013-07-02 15:11:00,96.3,51.0,30.08,North,0,0.0,0.0,22,0.00,,,0.00,WUHU216HW,2013-07-02 21:11:00,
2013-07-02 15:17:00,96.8,52.7,30.08,North,0,0.0,0.0,23,0.00,,,0.00,WUHU216HW,2013-07-02 21:17:00,
2013-07-02 15:22:00,97.9,52.4,30.08,North,0,0.0,0.0,22,0.00,,,0.00,WUHU216HW,2013-07-02 21:22:00,
2013-07-02 15:27:00,98.3,52.8,30.08,North,0,0.0,0.0,22,0.00,,,0.00,WUHU216HW,2013-07-02 21:27:00,
2013-07-02 15:32:00,98.3,52.8,30.08,North,0,0.0,0.0,22,0.00,,,0.00,WUHU216HW,2013-07-02 21:32:00,
2013-07-02 15:37:00,98.5,52.8,30.07,North,0,0.0,0.0,22,0.00,,,0.00,WUHU216HW,2013-07-02 21:37:00,
2013-07-02 15:42:00,99.0,53.3,30.07,North,0,0.0,0.0,22,0.00,,,0.00,WUHU216HW,2013-07-02 21:42:00,
2013-07-02 15:47:00,99.5,53.7,30.07,North,0,0.0,0.0,22,0.00,,,0.00,WUHU216HW,2013-07-02 21:47:00,
2013-07-02 15:52:00,100.1,51.9,30.06,North,0,0.0,0.0,20,0.00,,,0.00,WUHU216HW,2013-07-02 21:52:00,
2013-07-02 15:57:00,99.9,50.0,30.06,North,0,0.0,0.0,19,0.00,,,0.00,WUHU216HW,2013-07-02 21:57:00,
2013-07-02 16:02:00,99.4,45.9,30.06,North,0,0.0,0.0,17,0.00,,,0.00,WUHU216HW,2013-07-02 22:02:00,
2013-07-02 16:07:00,99.2,44.0,30.06,North,0,0.0,0.0,16,0.00,,,0.00,WUHU216HW,2013-07-02 22:07:00,
2013-07-02 16:12:00,99.2,44.0,30.06,North,0,0.0,0.0,16,0.00,,,0.00,WUHU216HW,2013-07-02 22:12:00,
2013-07-02 16:17:00,99.4,44.1,30.06,North,0,0.0,0.0,16,0.00,,,0.00,WUHU216HW,2013-07-02 22:17:00,
2013-07-02 16:22:00,99.7,44.5,30.06,North,0,0.0,0.0,16,0.00,,,0.00,WUHU216HW,2013-07-02 22:22:00,
2013-07-02 16:27:00,99.4,44.1,30.06,North,0,0.0,0.0,16,0.00,,,0.00,WUHU216HW,2013-07-02 22:27:00,
2013-07-02 16:32:00,99.4,44.1,30.06,North,0,0.0,0.0,16,0.00,,,0.00,WUHU216HW,2013-07-02 22:32:00,
2013-07-02 16:37:00,99.5,46.1,30.06,North,0,0.0,0.0,17,0.00,,,0.00,WUHU216HW,2013-07-02 22:37:00,
2013-07-02 16:42:00,100.1,46.5,30.06,North,0,0.0,0.0,17,0.00,,,0.00,WUHU216HW,2013-07-02 22:42:00,
2013-07-02 16:47:00,100.1,46.5,30.06,North,0,0.0,0.0,17,0.00,,,0.00,WUHU216HW,2013-07-02 22:47:00,